createdAt,value
2023-09-09T00:02:26.270Z,33.72
2023-09-09T00:04:54.648Z,27.80
2023-09-09T00:07:21.090Z,32.72
2023-09-09T00:09:47.532Z,29.77
2023-09-09T00:12:13.970Z,35.33
2023-09-09T00:14:40.407Z,29.58
2023-09-09T00:17:07.476Z,30.90
2023-09-09T00:19:34.033Z,27.88
2023-09-09T00:22:01.978Z,25.52
2023-09-09T00:24:28.509Z,29.33
2023-09-09T00:26:54.944Z,34.92
2023-09-09T00:29:21.412Z,29.48
2023-09-09T00:31:47.912Z,33.40
2023-09-09T00:34:14.368Z,30.65
2023-09-09T00:36:40.838Z,30.80
2023-09-09T00:39:08.677Z,37.45
2023-09-09T00:41:35.175Z,35.75
2023-09-09T00:44:01.621Z,34.50
2023-09-09T00:46:28.254Z,37.72
2023-09-09T00:48:54.813Z,30.25
2023-09-09T00:51:21.270Z,35.67
2023-09-09T00:53:47.762Z,34.20
2023-09-09T00:56:15.585Z,33.80
2023-09-09T00:58:42.054Z,33.35
2023-09-09T01:01:08.501Z,35.35
2023-09-09T01:03:35.212Z,36.28
2023-09-09T01:06:01.848Z,28.60
2023-09-09T01:08:28.643Z,31.33
2023-09-09T01:10:55.183Z,38.38
2023-09-09T01:13:23.068Z,36.40
2023-09-09T01:15:49.689Z,37.63
2023-09-09T01:18:16.220Z,35.88
2023-09-09T01:20:44.501Z,33.40
2023-09-09T01:23:12.501Z,44.10
2023-09-09T01:25:38.929Z,38.40
2023-09-09T01:28:05.617Z,36.15
2023-09-09T01:30:32.032Z,44.55
2023-09-09T01:32:58.502Z,56.42
2023-09-09T01:35:25.778Z,49.90
2023-09-09T01:37:52.283Z,38.58
2023-09-09T01:40:20.244Z,44.83
2023-09-09T01:42:46.722Z,39.10
2023-09-09T01:45:13.228Z,37.90
2023-09-09T01:47:39.848Z,43.25
2023-09-09T01:50:06.943Z,39.60
2023-09-09T01:52:33.411Z,43.45
2023-09-09T01:54:59.826Z,40.78
2023-09-09T01:57:28.536Z,45.78
2023-09-09T01:59:55.005Z,50.63
2023-09-09T02:02:21.428Z,42.80
2023-09-09T02:04:47.917Z,43.78
2023-09-09T02:07:14.338Z,51.95
2023-09-09T02:09:40.838Z,41.42
2023-09-09T02:12:07.476Z,35.55
2023-09-09T02:14:35.337Z,43.28
2023-09-09T02:17:01.891Z,42.00
2023-09-09T02:19:28.371Z,36.97
2023-09-09T02:21:54.823Z,46.80
2023-09-09T02:24:21.268Z,42.58
2023-09-09T02:26:47.712Z,37.83
2023-09-09T02:29:14.143Z,42.38
2023-09-09T02:31:42.067Z,44.80
2023-09-09T02:34:08.563Z,45.35
2023-09-09T02:36:35.058Z,40.30
2023-09-09T02:39:01.491Z,41.75
2023-09-09T02:41:27.974Z,47.20
2023-09-09T02:43:54.420Z,41.58
2023-09-09T02:46:21.300Z,46.53
2023-09-09T02:48:49.175Z,41.58
2023-09-09T02:51:15.603Z,39.28
2023-09-09T02:53:42.046Z,42.17
2023-09-09T02:56:08.508Z,46.97
2023-09-09T02:58:34.989Z,35.75
2023-09-09T03:01:04.703Z,47.38
2023-09-09T03:03:31.304Z,43.50
2023-09-09T03:05:59.468Z,38.97
2023-09-09T03:08:25.936Z,40.65
2023-09-09T03:10:53.208Z,43.35
2023-09-09T03:13:19.665Z,37.97
2023-09-09T03:15:46.069Z,39.20
2023-09-09T03:18:12.607Z,33.85
2023-09-09T03:20:39.177Z,41.78
2023-09-09T03:23:07.024Z,49.38
2023-09-09T03:25:33.512Z,47.67
2023-09-09T03:28:00.015Z,39.70
2023-09-09T03:30:26.478Z,39.60
2023-09-09T03:32:52.990Z,42.42
2023-09-09T03:35:19.460Z,50.45
2023-09-09T03:37:45.900Z,41.72
2023-09-09T03:40:14.031Z,55.25
2023-09-09T03:42:40.606Z,44.35
2023-09-09T03:45:07.546Z,40.75
2023-09-09T03:47:34.093Z,43.47
2023-09-09T03:50:00.575Z,38.33
2023-09-09T03:52:27.840Z,38.85
2023-09-09T03:54:54.376Z,36.92
2023-09-09T03:57:22.217Z,38.63
2023-09-09T03:59:48.677Z,48.63
2023-09-09T04:02:15.192Z,49.80
2023-09-09T04:04:41.598Z,37.70
2023-09-09T04:07:08.062Z,42.67
2023-09-09T04:09:34.468Z,36.45
2023-09-09T04:12:00.928Z,39.72
2023-09-09T04:14:28.724Z,39.65
2023-09-09T04:16:55.342Z,34.97
2023-09-09T04:19:21.897Z,50.15
2023-09-09T04:21:48.344Z,37.40
2023-09-09T04:24:14.798Z,41.67
2023-09-09T04:26:41.216Z,37.25
2023-09-09T04:29:07.615Z,48.35
2023-09-09T04:31:35.448Z,39.25
2023-09-09T04:34:01.931Z,36.53
2023-09-09T04:36:28.396Z,38.20
2023-09-09T04:38:54.899Z,37.50
2023-09-09T04:41:21.426Z,37.28
2023-09-09T04:43:47.873Z,39.20
2023-09-09T04:46:14.280Z,41.15
2023-09-09T04:48:42.111Z,42.67
2023-09-09T04:51:08.526Z,42.38
2023-09-09T04:53:34.950Z,45.63
2023-09-09T04:56:01.549Z,44.20
2023-09-09T04:58:28.641Z,48.33
2023-09-09T05:00:55.082Z,47.05
2023-09-09T05:03:21.711Z,42.33
2023-09-09T05:05:49.604Z,45.28
2023-09-09T05:08:16.081Z,44.42
2023-09-09T05:10:42.495Z,39.58
2023-09-09T05:13:09.048Z,45.40
2023-09-09T05:15:35.585Z,36.05
2023-09-09T05:18:02.108Z,42.25
2023-09-09T05:20:28.615Z,45.28
2023-09-09T05:22:56.450Z,38.70
2023-09-09T05:25:22.942Z,34.65
2023-09-09T05:27:49.371Z,38.67
2023-09-09T05:30:15.941Z,49.35
2023-09-09T05:32:42.520Z,39.10
2023-09-09T05:35:10.774Z,41.67
2023-09-09T05:37:37.251Z,34.92
2023-09-09T05:40:05.692Z,37.53
2023-09-09T05:42:32.168Z,36.22
2023-09-09T05:44:58.617Z,33.45
2023-09-09T05:47:25.125Z,31.42
2023-09-09T05:49:51.526Z,30.67
2023-09-09T05:52:17.974Z,38.20
2023-09-09T05:54:44.443Z,32.60
2023-09-09T05:57:12.331Z,34.97
2023-09-09T05:59:38.822Z,38.00
2023-09-09T06:02:05.470Z,34.05
2023-09-09T06:04:32.067Z,29.80
2023-09-09T06:06:58.689Z,39.80
2023-09-09T06:09:25.201Z,42.10
2023-09-09T06:11:51.771Z,34.10
2023-09-09T06:14:19.628Z,34.35
2023-09-09T06:16:46.079Z,32.70
2023-09-09T06:19:13.465Z,35.55
2023-09-09T06:21:39.949Z,38.42
2023-09-09T06:24:06.554Z,35.42
2023-09-09T06:26:33.096Z,44.03
2023-09-09T06:28:59.581Z,32.50
2023-09-09T06:31:27.488Z,32.95
2023-09-09T06:33:53.973Z,42.20
2023-09-09T06:36:20.487Z,42.25
2023-09-09T06:38:47.092Z,39.30
2023-09-09T06:41:13.536Z,34.40
2023-09-09T06:43:40.288Z,36.20
2023-09-09T06:46:06.941Z,32.30
2023-09-09T06:48:34.789Z,30.58
2023-09-09T06:51:01.278Z,33.20
2023-09-09T06:53:27.757Z,28.88
2023-09-09T06:55:54.235Z,42.33
2023-09-09T06:58:20.758Z,34.60
2023-09-09T07:00:50.099Z,32.33
2023-09-09T07:05:44.295Z,25.70
2023-09-09T07:08:10.728Z,26.30
2023-09-09T07:10:37.182Z,28.75
2023-09-09T07:13:03.838Z,22.92
2023-09-09T07:15:30.567Z,23.98
2023-09-09T07:17:57.079Z,33.13
2023-09-09T07:20:23.596Z,29.33
2023-09-09T07:22:51.435Z,26.02
2023-09-09T07:25:18.108Z,29.63
2023-09-09T07:27:44.595Z,29.77
2023-09-09T07:30:11.218Z,23.80
2023-09-09T07:32:37.871Z,28.15
2023-09-09T07:35:05.206Z,23.42
2023-09-09T07:37:31.789Z,23.13
2023-09-09T07:39:59.708Z,25.65
2023-09-09T07:42:26.209Z,24.40
2023-09-09T07:44:52.717Z,27.67
2023-09-09T07:47:19.227Z,21.77
2023-09-09T07:49:45.664Z,29.10
2023-09-09T07:52:12.088Z,19.48
2023-09-09T07:54:38.608Z,21.55
2023-09-09T07:57:06.648Z,20.08
2023-09-09T07:59:33.073Z,26.20
2023-09-09T08:01:59.712Z,22.55
2023-09-09T08:04:26.299Z,18.95
2023-09-09T08:06:52.838Z,21.48
2023-09-09T08:09:19.317Z,22.70
2023-09-09T08:11:46.440Z,17.17
2023-09-09T08:14:14.420Z,18.48
2023-09-09T08:16:41.137Z,33.08
2023-09-09T08:19:08.031Z,24.92
2023-09-09T08:21:35.791Z,22.73
2023-09-09T08:24:02.794Z,22.05
2023-09-09T08:26:29.908Z,14.57
2023-09-09T08:28:56.871Z,18.40
2023-09-09T08:31:25.040Z,19.58
2023-09-09T08:33:52.194Z,26.00
2023-09-09T08:36:19.915Z,16.90
2023-09-09T08:38:46.577Z,17.92
2023-09-09T08:41:17.666Z,15.10
2023-09-09T08:43:53.992Z,19.95
2023-09-09T08:46:21.721Z,19.67
2023-09-09T08:48:50.731Z,22.25
2023-09-09T08:51:17.730Z,19.77
2023-09-09T08:53:44.459Z,17.58
2023-09-09T08:56:11.198Z,16.92
2023-09-09T08:58:37.660Z,19.52
2023-09-09T09:01:04.535Z,18.00
2023-09-09T09:03:32.909Z,14.77
2023-09-09T09:06:02.465Z,19.17
2023-09-09T09:08:28.998Z,15.07
2023-09-09T09:10:57.051Z,16.23
2023-09-09T09:13:23.565Z,18.30
2023-09-09T09:15:49.985Z,13.32
2023-09-09T09:18:16.619Z,16.25
2023-09-09T09:20:43.427Z,13.98
2023-09-09T09:23:12.718Z,12.82
2023-09-09T09:28:05.763Z,15.25
2023-09-09T09:30:32.652Z,17.13
2023-09-09T09:32:59.204Z,23.27
2023-09-09T09:35:26.184Z,15.40
2023-09-09T09:37:53.654Z,17.70
2023-09-09T09:40:21.907Z,26.45
2023-09-09T09:42:49.465Z,15.70
2023-09-09T09:45:18.076Z,18.33
2023-09-09T09:47:52.823Z,20.05
2023-09-09T09:50:20.070Z,20.73
2023-09-09T09:52:55.897Z,15.52
2023-09-09T09:55:24.077Z,17.17
2023-09-09T09:57:52.703Z,17.55
2023-09-09T10:00:20.692Z,14.27
2023-09-09T10:02:47.442Z,25.20
2023-09-09T10:05:14.426Z,17.40
2023-09-09T10:07:42.737Z,11.02
2023-09-09T10:10:10.632Z,11.87
2023-09-09T10:12:47.935Z,17.08
2023-09-09T10:15:16.205Z,12.60
2023-09-09T10:17:43.748Z,14.98
2023-09-09T10:20:11.543Z,15.95
2023-09-09T10:22:39.053Z,16.73
2023-09-09T10:25:06.482Z,14.77
2023-09-09T10:27:33.113Z,15.75
2023-09-09T10:30:01.788Z,17.38
2023-09-09T10:32:29.003Z,11.88
2023-09-09T10:34:55.983Z,23.67
2023-09-09T10:37:23.729Z,15.00
2023-09-09T10:39:50.716Z,14.40
2023-09-09T10:42:17.410Z,18.13
2023-09-09T10:44:47.436Z,13.38
2023-09-09T10:47:15.507Z,12.15
2023-09-09T10:49:42.032Z,10.23
2023-09-09T10:52:08.725Z,13.27
2023-09-09T10:54:35.534Z,20.65
2023-09-09T10:57:02.414Z,20.63
2023-09-09T10:59:29.895Z,16.13
2023-09-09T11:02:09.723Z,10.25
2023-09-09T11:04:38.961Z,12.07
2023-09-09T11:07:09.222Z,11.77
2023-09-09T11:09:36.003Z,13.70
2023-09-09T11:12:11.612Z,12.07
2023-09-09T11:14:38.363Z,9.93
2023-09-09T11:17:05.195Z,15.18
2023-09-09T11:19:31.749Z,11.00
2023-09-09T11:21:59.646Z,12.55
2023-09-09T11:24:26.180Z,18.40
2023-09-09T11:26:56.517Z,13.35
2023-09-09T11:29:36.346Z,10.55
2023-09-09T11:32:08.849Z,8.30
2023-09-09T11:34:35.720Z,16.50
2023-09-09T11:37:04.620Z,18.60
2023-09-09T11:39:31.976Z,15.13
2023-09-09T11:42:02.288Z,15.23
2023-09-09T11:44:35.340Z,13.50
2023-09-09T11:47:05.359Z,21.77
2023-09-09T11:49:33.637Z,12.20
2023-09-09T11:52:01.008Z,15.73
2023-09-09T12:04:23.989Z,14.07
2023-09-09T12:06:53.103Z,21.45
2023-09-09T12:12:13.310Z,10.13
2023-09-09T12:14:45.932Z,14.73
2023-09-09T12:20:19.659Z,15.40
2023-09-09T12:28:43.946Z,14.38
2023-09-09T12:31:46.966Z,17.42
2023-09-09T12:40:15.892Z,18.70
2023-09-09T12:49:14.074Z,16.85
2023-09-09T12:51:43.458Z,12.38
2023-09-09T13:12:55.251Z,18.20
2023-09-09T13:15:22.955Z,23.85
2023-09-09T13:17:50.031Z,32.13
2023-09-09T13:20:20.200Z,10.88
2023-09-09T13:22:50.062Z,26.00
2023-09-09T13:25:18.057Z,13.52
2023-09-09T13:27:46.120Z,10.23
2023-09-09T13:30:14.869Z,14.47
2023-09-09T13:32:44.474Z,18.33
2023-09-09T13:35:11.378Z,19.02
2023-09-09T13:37:38.251Z,21.50
2023-09-09T13:40:05.564Z,21.42
2023-09-09T13:42:34.972Z,16.00
2023-09-09T13:47:32.907Z,15.40
2023-09-09T13:50:01.394Z,14.82
2023-09-09T13:52:28.231Z,24.92
2023-09-09T13:54:55.048Z,24.55
2023-09-09T13:57:21.658Z,19.40
2023-09-09T13:59:52.811Z,16.30
2023-09-09T14:02:19.652Z,14.70
2023-09-09T14:04:48.198Z,12.90
2023-09-09T14:07:18.050Z,15.77
2023-09-09T14:09:50.788Z,17.17
2023-09-09T14:12:20.446Z,12.35
2023-09-09T14:14:50.549Z,16.75
2023-09-09T14:17:19.665Z,19.67
2023-09-09T14:19:51.602Z,12.68
2023-09-09T14:22:21.555Z,18.88
2023-09-09T14:24:48.298Z,30.20
2023-09-09T14:27:15.210Z,17.60
2023-09-09T14:29:44.529Z,23.35
2023-09-09T14:32:11.441Z,14.65
2023-09-09T14:34:40.003Z,17.70
2023-09-09T14:37:08.284Z,17.05
2023-09-09T14:39:38.250Z,18.65
2023-09-09T14:42:07.299Z,16.38
2023-09-09T14:47:02.716Z,19.33
2023-09-09T14:49:32.386Z,24.10
2023-09-09T14:51:59.011Z,18.05
2023-09-09T14:54:29.461Z,15.63
2023-09-09T14:56:56.097Z,25.98
2023-09-09T14:59:43.525Z,25.42
2023-09-09T15:02:13.191Z,22.15
2023-09-09T15:04:40.388Z,35.22
2023-09-09T15:07:09.634Z,30.55
2023-09-09T15:09:37.849Z,15.93
2023-09-09T15:12:10.002Z,21.67
2023-09-09T15:14:37.227Z,18.77
2023-09-09T15:17:04.088Z,20.52
2023-09-09T15:19:31.350Z,21.40
2023-09-09T15:21:58.073Z,22.83
2023-09-09T15:24:25.196Z,25.45
2023-09-09T15:26:53.969Z,25.95
2023-09-09T15:29:20.712Z,25.13
2023-09-09T15:31:47.448Z,21.00
2023-09-09T15:34:14.234Z,31.50
2023-09-09T15:36:41.264Z,23.58
2023-09-09T15:39:14.024Z,25.23
2023-09-09T15:41:47.129Z,32.67
2023-09-09T15:44:15.681Z,22.58
2023-09-09T15:46:43.186Z,21.20
2023-09-09T15:49:26.182Z,23.38
2023-09-09T15:51:57.020Z,20.75
2023-09-09T15:54:41.760Z,26.50
2023-09-09T16:00:23.753Z,27.88
2023-09-09T16:03:01.385Z,19.65
2023-09-09T16:05:30.474Z,34.38
2023-09-09T16:10:42.199Z,31.52
2023-09-09T16:13:08.957Z,30.00
2023-09-09T16:15:38.933Z,30.60
2023-09-09T16:18:07.423Z,23.63
2023-09-09T16:20:34.400Z,20.73
2023-09-09T16:23:01.334Z,32.90
2023-09-09T16:25:28.174Z,26.00
2023-09-09T16:27:57.014Z,20.50
2023-09-09T16:30:25.170Z,21.02
2023-09-09T16:32:53.171Z,29.87
2023-09-09T16:35:19.778Z,35.60
2023-09-09T16:37:46.423Z,35.53
2023-09-09T16:40:13.136Z,32.35
2023-09-09T16:42:39.917Z,43.05
2023-09-09T16:45:07.238Z,42.42
2023-09-09T16:47:34.755Z,30.67
2023-09-09T16:50:18.564Z,49.80
2023-09-09T16:52:45.517Z,31.83
2023-09-09T16:55:13.261Z,31.70
2023-09-09T16:57:42.917Z,35.15
2023-09-09T17:00:10.041Z,35.17
2023-09-09T17:02:37.187Z,32.33
2023-09-09T17:05:07.328Z,40.45
2023-09-09T17:07:39.439Z,31.15
2023-09-09T17:10:13.886Z,29.75
2023-09-09T17:12:43.127Z,30.30
2023-09-09T17:17:59.472Z,32.72
2023-09-09T17:20:30.347Z,34.25
2023-09-09T17:22:59.827Z,35.13
2023-09-09T17:25:26.465Z,47.45
2023-09-09T17:27:53.276Z,50.60
2023-09-09T17:30:19.800Z,30.98
2023-09-09T17:32:46.400Z,33.88
2023-09-09T17:35:12.925Z,36.80
2023-09-09T17:37:40.922Z,43.03
2023-09-09T17:40:08.126Z,28.50
2023-09-09T17:42:34.781Z,38.25
2023-09-09T17:45:01.473Z,51.70
2023-09-09T17:47:28.084Z,51.58
2023-09-09T17:49:54.763Z,43.05
2023-09-09T17:52:21.330Z,48.15
2023-09-09T17:55:06.881Z,58.38
2023-09-09T17:57:33.350Z,55.97
2023-09-09T17:59:59.783Z,46.92
2023-09-09T18:02:26.282Z,40.58
2023-09-09T18:04:52.812Z,54.03
2023-09-09T18:07:19.387Z,56.50
2023-09-09T18:09:45.882Z,42.53
2023-09-09T18:12:13.828Z,45.58
2023-09-09T18:14:40.371Z,40.70
2023-09-09T18:17:07.828Z,38.50
2023-09-09T18:19:34.784Z,46.13
2023-09-09T18:22:01.361Z,43.38
2023-09-09T18:24:28.114Z,34.42
2023-09-09T18:26:54.766Z,40.00
2023-09-09T18:29:22.738Z,36.75
2023-09-09T18:31:49.239Z,35.08
2023-09-09T18:34:15.737Z,25.35
2023-09-09T18:36:42.271Z,28.40
2023-09-09T18:39:08.811Z,33.17
2023-09-09T18:41:35.330Z,24.45
2023-09-09T18:44:01.893Z,33.67
2023-09-09T18:46:29.862Z,32.95
2023-09-09T18:48:56.380Z,32.22
2023-09-09T18:51:22.974Z,30.58
2023-09-09T18:53:49.817Z,36.95
2023-09-09T18:56:16.419Z,48.63
2023-09-09T18:58:43.278Z,38.03
2023-09-09T19:01:09.852Z,42.22
2023-09-09T19:03:38.044Z,45.47
2023-09-09T19:06:05.143Z,43.93
2023-09-09T19:08:33.244Z,43.65
2023-09-09T19:11:00.002Z,49.75
2023-09-09T19:13:35.304Z,45.53
2023-09-09T19:16:05.601Z,37.28
2023-09-09T19:18:37.519Z,40.15
2023-09-09T19:21:13.187Z,46.80
2023-09-09T19:23:45.348Z,37.67
2023-09-09T19:26:20.739Z,36.90
2023-09-09T19:28:49.739Z,38.05
2023-09-09T19:31:18.865Z,50.75
2023-09-09T19:33:46.521Z,40.70
2023-09-09T19:36:17.354Z,42.63
2023-09-09T19:38:49.503Z,45.28
2023-09-09T19:41:20.004Z,38.28
2023-09-09T19:43:48.000Z,42.13
2023-09-09T19:46:14.916Z,48.65
2023-09-09T19:48:41.687Z,43.50
2023-09-09T19:51:08.333Z,41.25
2023-09-09T19:53:37.176Z,54.70
2023-09-09T19:56:05.223Z,34.15
2023-09-09T19:58:32.307Z,33.13
2023-09-09T20:00:58.882Z,30.83
2023-09-09T20:03:25.822Z,39.90
2023-09-09T20:05:52.749Z,36.30
2023-09-09T20:08:19.538Z,37.15
2023-09-09T20:10:47.623Z,37.33
2023-09-09T20:13:14.501Z,33.17
2023-09-09T20:15:41.141Z,36.83
2023-09-09T20:18:08.015Z,35.63
2023-09-09T20:20:35.198Z,34.97
2023-09-09T20:23:02.009Z,28.90
2023-09-09T20:25:28.888Z,36.95
2023-09-09T20:27:59.093Z,41.35
2023-09-09T20:30:26.589Z,43.95
2023-09-09T20:32:53.623Z,41.35
2023-09-09T20:37:52.385Z,33.40
2023-09-09T20:40:22.064Z,40.42
2023-09-09T20:42:56.032Z,34.88
2023-09-09T20:45:25.415Z,39.65
2023-09-09T20:47:52.819Z,40.50
2023-09-09T20:50:24.693Z,31.27
2023-09-09T20:52:51.952Z,31.88
2023-09-09T20:55:18.688Z,38.90
2023-09-09T20:57:45.850Z,31.00
2023-09-09T21:00:13.110Z,30.63
2023-09-09T21:02:41.515Z,42.08
2023-09-09T21:05:08.935Z,43.38
2023-09-09T21:07:35.669Z,35.58
2023-09-09T21:10:02.995Z,43.92
2023-09-09T21:12:29.493Z,37.53
2023-09-09T21:14:56.113Z,39.92
2023-09-09T21:17:23.313Z,42.47
2023-09-09T21:19:51.217Z,40.67
2023-09-09T21:22:17.878Z,31.38
2023-09-09T21:24:44.737Z,40.75
2023-09-09T21:27:11.283Z,39.80
2023-09-09T21:29:37.910Z,47.92
2023-09-09T21:32:05.202Z,44.88
2023-09-09T21:34:31.787Z,36.58
2023-09-09T21:36:59.726Z,45.97
2023-09-09T21:39:26.958Z,38.15
2023-09-09T21:41:53.621Z,44.65
2023-09-09T21:44:20.366Z,46.10
2023-09-09T21:46:46.998Z,37.50
2023-09-09T21:49:13.860Z,42.63
2023-09-09T21:51:40.335Z,42.10
2023-09-09T21:54:08.634Z,47.90
2023-09-09T21:56:36.859Z,39.20
2023-09-09T21:59:03.850Z,40.58
2023-09-09T22:01:30.842Z,45.60
2023-09-09T22:03:57.329Z,40.45
2023-09-09T22:06:24.437Z,51.25
2023-09-09T22:08:51.029Z,52.00
2023-09-09T22:11:19.002Z,47.10
2023-09-09T22:13:45.603Z,51.20
2023-09-09T22:16:12.460Z,40.67
2023-09-09T22:18:39.789Z,50.35
2023-09-09T22:21:07.038Z,59.67
2023-09-09T22:23:33.543Z,62.08
2023-09-09T22:26:00.152Z,54.95
2023-09-09T22:28:28.327Z,53.55
2023-09-09T22:30:55.058Z,46.55
2023-09-09T22:33:21.657Z,56.35
2023-09-09T22:35:48.190Z,45.90
2023-09-09T22:38:14.956Z,53.00
2023-09-09T22:40:41.687Z,52.58
2023-09-09T22:43:08.711Z,54.03
2023-09-09T22:45:37.191Z,53.90
2023-09-09T22:48:05.042Z,49.80
2023-09-09T22:50:31.963Z,53.20
2023-09-09T22:52:58.470Z,50.78
2023-09-09T22:55:25.214Z,53.97
2023-09-09T22:57:51.725Z,49.97
2023-09-09T23:00:18.608Z,53.83
2023-09-09T23:02:46.544Z,49.42
2023-09-09T23:05:13.134Z,46.92
2023-09-09T23:07:51.751Z,46.65
2023-09-09T23:10:19.418Z,54.35
2023-09-09T23:12:45.857Z,49.72
2023-09-09T23:15:12.348Z,50.55
2023-09-09T23:17:38.856Z,53.35
2023-09-09T23:20:07.446Z,47.50
2023-09-09T23:22:34.054Z,48.13
2023-09-09T23:25:00.710Z,58.03
2023-09-09T23:27:27.284Z,58.88
2023-09-09T23:29:53.701Z,53.42
2023-09-09T23:32:20.222Z,54.72
2023-09-09T23:34:46.803Z,49.47
2023-09-09T23:37:14.599Z,49.53
2023-09-09T23:39:41.001Z,53.00
2023-09-09T23:42:07.454Z,54.80
2023-09-09T23:44:33.894Z,58.70
2023-09-09T23:47:00.427Z,54.25
2023-09-09T23:49:26.951Z,52.85
2023-09-09T23:51:53.380Z,48.50
2023-09-09T23:54:21.202Z,53.38
2023-09-09T23:56:47.627Z,58.90
2023-09-09T23:59:14.150Z,56.28
